PWSweather.com
Personal Weather Stations
Station Observations
WISCHPK61
Green Bay Schmitt Park, Green Bay, WI 54311

Green Bay Schmitt ParkGreen Bay, WI 54311

Lat: 44.514277, Lon: -87.935067

Elevation: 735

Station Type: Acu Rite Pro Weather Center model 02032C

http://greenbayweathercam.com

High Low Average
Temperature 25.3°F-3.7°C 5.9°F-14.5°C 14.0°F-10.0°C
Dew Point 25.1°F-3.8°C -3.0°F-19.4°C 13.1°F-10.5°C
Winds Calm Calm Calm Calm Calm SWCalm SW
Wind Gusts -- -- --
Humidity 99% 66% 96%
Pressure 29.63 in1003.4 mb 29.40 in995.6 mb -
Precipitation 0.00 in0.0 mm - -
Hour Temp Dew Point Humidity Winds Wind Gusts Pressure Precip Precip Rate Daily Precip Total
12:00 AM 7.5°F-13.6°C 7.3°F-13.7°C 99% Calm Calm -- 29.66 in1004.4 mb - 0.00 in0.0 mm 0.00 in0.0 mm
01:00 AM 7.7°F-13.5°C 7.5°F-13.6°C 99% Calm Calm -- 29.63 in1003.4 mb - 0.00 in0.0 mm 0.00 in0.0 mm
02:00 AM 8.1°F-13.3°C 7.9°F-13.4°C 99% Calm Calm -- 29.62 in1003.0 mb - 0.00 in0.0 mm 0.00 in0.0 mm
03:00 AM 8.6°F-13.0°C 8.4°F-13.1°C 99% Calm Calm -- 29.60 in1002.4 mb - 0.00 in0.0 mm 0.00 in0.0 mm
04:00 AM 8.9°F-12.8°C 6.0°F-14.4°C 88% Calm Calm -- 29.56 in1001.0 mb - 0.00 in0.0 mm 0.00 in0.0 mm
05:00 AM 9.1°F-12.7°C 8.9°F-12.8°C 99% Calm Calm -- 29.53 in1000.0 mb - 0.00 in0.0 mm 0.00 in0.0 mm
06:00 AM 9.1°F-12.7°C 8.9°F-12.8°C 99% Calm Calm -- 29.53 in1000.0 mb - 0.00 in0.0 mm 0.00 in0.0 mm
07:00 AM 9.3°F-12.6°C 9.1°F-12.7°C 99% Calm Calm -- 29.52 in999.7 mb - 0.00 in0.0 mm 0.00 in0.0 mm
08:00 AM 9.7°F-12.4°C 9.5°F-12.5°C 99% Calm Calm -- 29.49 in998.6 mb - 0.00 in0.0 mm 0.00 in0.0 mm
09:00 AM 11.2°F-11.6°C 11.0°F-11.7°C 99% Calm Calm -- 29.47 in998.0 mb - 0.00 in0.0 mm 0.00 in0.0 mm
10:00 AM 16.0°F-8.9°C 15.8°F-9.0°C 99% Calm Calm -- 29.45 in997.3 mb - 0.00 in0.0 mm 0.00 in0.0 mm
11:00 AM 17.9°F-7.8°C 17.7°F-7.9°C 99% Calm Calm -- 29.41 in995.9 mb - 0.00 in0.0 mm 0.00 in0.0 mm
12:00 PM 21.3°F-5.9°C 21.1°F-6.1°C 99% Calm Calm -- 29.42 in996.3 mb - 0.00 in0.0 mm 0.00 in0.0 mm
01:00 PM 25.3°F-3.7°C 25.1°F-3.8°C 99% Calm Calm -- 29.41 in995.9 mb - 0.00 in0.0 mm 0.00 in0.0 mm
02:00 PM 25.3°F-3.7°C 25.1°F-3.8°C 99% Calm Calm -- 29.41 in995.9 mb - 0.00 in0.0 mm 0.00 in0.0 mm
03:00 PM 21.9°F-5.6°C 21.7°F-5.7°C 99% Calm Calm -- 29.40 in995.6 mb - 0.00 in0.0 mm 0.00 in0.0 mm
04:00 PM 22.2°F-5.4°C 21.9°F-5.6°C 99% Calm Calm -- 29.40 in995.6 mb - 0.00 in0.0 mm 0.00 in0.0 mm
05:00 PM 20.1°F-6.6°C 19.9°F-6.7°C 99% Calm Calm -- 29.41 in995.9 mb - 0.00 in0.0 mm 0.00 in0.0 mm
06:00 PM 19.4°F-7.0°C 14.2°F-9.9°C 80% Calm Calm -- 29.42 in996.3 mb - 0.00 in0.0 mm 0.00 in0.0 mm
07:00 PM 17.8°F-7.9°C 17.6°F-8.0°C 99% Calm Calm -- 29.43 in996.6 mb - 0.00 in0.0 mm 0.00 in0.0 mm
08:00 PM 15.8°F-9.0°C 15.5°F-9.2°C 99% Calm Calm -- 29.46 in997.6 mb - 0.00 in0.0 mm 0.00 in0.0 mm
09:00 PM 10.9°F-11.7°C 10.7°F-11.8°C 99% Calm Calm -- 29.48 in998.3 mb - 0.00 in0.0 mm 0.00 in0.0 mm
10:00 PM 8.6°F-13.0°C 8.4°F-13.1°C 99% Calm Calm -- 29.48 in998.3 mb - 0.00 in0.0 mm 0.00 in0.0 mm
11:00 PM 6.1°F-14.4°C 5.9°F-14.5°C 99% Calm Calm -- 29.48 in998.3 mb - 0.00 in0.0 mm 0.00 in0.0 mm